Time;durP1;ratioP1;P1;durP2;ratioP2;P2;SDS_P1;SDS_P2;PMS_P1;PMS_P2;Temp;Humidity;BMP_temperature;BMP_pressure;BME280_temperature;BME280_humidity;BME280_pressure;Samples;Min_cycle;Max_cycle;Signal;HPM_P1;HPM_P2
2022/08/24 00:01:04;;;;;;;3.88;2.55;;;;;;;18.35;100.00;100670.53;4946982;28;20059;-67
2022/08/24 00:03:30;;;;;;;4.60;3.42;;;;;;;18.26;100.00;100669.44;4936012;28;20102;-67
2022/08/24 00:05:56;;;;;;;4.65;3.28;;;;;;;18.33;100.00;100668.00;4953534;28;20114;-67
2022/08/24 00:08:21;;;;;;;4.22;3.00;;;;;;;18.33;100.00;100673.31;4952997;28;20020;-67
2022/08/24 00:10:46;;;;;;;4.68;3.00;;;;;;;18.26;100.00;100666.78;4953434;28;20073;-67
2022/08/24 00:13:13;;;;;;;4.82;2.60;;;;;;;18.27;100.00;100675.59;4952996;28;20462;-67
2022/08/24 00:15:39;;;;;;;3.90;3.20;;;;;;;18.24;100.00;100678.50;4938749;28;20549;-67
2022/08/24 00:18:04;;;;;;;4.57;3.10;;;;;;;18.16;100.00;100671.09;4920126;29;20110;-67
2022/08/24 00:20:30;;;;;;;4.00;2.67;;;;;;;18.16;100.00;100679.09;4951371;28;20027;-67
2022/08/24 00:22:55;;;;;;;4.80;2.60;;;;;;;18.15;100.00;100664.09;4941050;28;20081;-67
2022/08/24 00:25:21;;;;;;;3.15;2.40;;;;;;;18.13;100.00;100673.16;4936711;28;20062;-67
2022/08/24 00:27:46;;;;;;;5.50;3.20;;;;;;;18.12;100.00;100674.97;4948996;28;20455;-67
2022/08/24 00:30:14;;;;;;;9.27;3.20;;;;;;;18.06;100.00;100667.47;4946299;29;20035;-67
2022/08/24 00:32:45;;;;;;;5.70;3.33;;;;;;;18.05;100.00;100679.06;4948525;28;20389;-67
2022/08/24 00:35:11;;;;;;;6.78;3.25;;;;;;;17.99;100.00;100671.56;4952682;28;20035;-67
2022/08/24 00:37:38;;;;;;;6.60;4.00;;;;;;;18.04;100.00;100676.53;4952570;28;20053;-67
2022/08/24 00:40:09;;;;;;;6.03;3.92;;;;;;;18.05;100.00;100678.22;4952528;28;20164;-67
2022/08/24 00:42:34;;;;;;;4.97;3.20;;;;;;;18.03;100.00;100681.00;4938962;29;20504;-67
2022/08/24 00:44:59;;;;;;;5.68;3.78;;;;;;;17.97;100.00;100670.00;4952323;28;20067;-67
2022/08/24 00:47:31;;;;;;;8.25;2.90;;;;;;;17.92;100.00;100678.31;4952311;28;20416;-67
2022/08/24 00:50:04;;;;;;;4.82;3.03;;;;;;;17.94;100.00;100680.88;4952707;28;20046;-67
2022/08/24 00:52:42;;;;;;;5.57;3.05;;;;;;;17.85;100.00;100677.06;4936992;28;20031;-67
2022/08/24 00:55:12;;;;;;;5.25;3.33;;;;;;;17.71;100.00;100674.63;4952279;28;20028;-67
2022/08/24 00:57:41;;;;;;;5.28;3.50;;;;;;;17.72;100.00;100676.31;5013886;28;20030;-67
2022/08/24 01:00:19;;;;;;;5.50;3.63;;;;;;;17.71;100.00;100686.09;4939869;29;20385;-67
2022/08/24 01:02:47;;;;;;;7.75;3.55;;;;;;;17.71;100.00;100685.28;4952207;28;20050;-67
2022/08/24 01:05:14;;;;;;;6.05;4.15;;;;;;;17.62;100.00;100680.63;4939850;28;20031;-67
2022/08/24 01:07:39;;;;;;;7.03;3.72;;;;;;;17.61;100.00;100678.91;4951617;28;20516;-67
2022/08/24 01:10:08;;;;;;;5.03;3.80;;;;;;;17.45;100.00;100657.94;4934351;28;20038;-67
2022/08/24 01:12:35;;;;;;;7.68;4.05;;;;;;;17.55;100.00;100682.00;4952263;28;20031;-67
2022/08/24 01:15:02;;;;;;;4.07;3.17;;;;;;;17.28;100.00;100643.25;4934541;28;20066;-67
2022/08/24 01:20:12;;;;;;;4.63;3.53;;;;;;;17.52;100.00;100679.56;4952163;29;20405;-67
2022/08/24 01:22:56;;;;;;;5.63;3.92;;;;;;;17.52;100.00;100676.91;4921284;29;20031;-67
2022/08/24 01:25:24;;;;;;;5.30;3.90;;;;;;;17.49;100.00;100675.34;4946564;28;20474;-67
2022/08/24 01:27:50;;;;;;;7.57;4.13;;;;;;;17.40;100.00;100675.19;4943174;28;20034;-67
2022/08/24 01:30:16;;;;;;;5.63;3.55;;;;;;;17.02;100.00;100612.47;4934930;28;20397;-67
2022/08/24 01:32:55;;;;;;;6.22;3.67;;;;;;;17.40;100.00;100675.19;4952140;28;20027;-67
2022/08/24 01:35:20;;;;;;;6.38;4.60;;;;;;;17.35;100.00;100668.41;4951874;28;20390;-67
2022/08/24 01:37:46;;;;;;;7.47;4.22;;;;;;;17.26;100.00;100663.78;4951513;28;20024;-67
2022/08/24 01:40:12;;;;;;;7.78;4.30;;;;;;;17.23;100.00;100679.94;4951472;28;20456;-67
2022/08/24 01:42:37;;;;;;;6.20;4.35;;;;;;;17.26;100.00;100684.16;4951883;28;20469;-67
2022/08/24 01:45:03;;;;;;;7.22;4.20;;;;;;;17.21;100.00;100667.72;4940153;28;20101;-67
2022/08/24 01:47:29;;;;;;;7.10;4.45;;;;;;;17.22;100.00;100677.38;4944598;28;20063;-67
2022/08/24 01:49:54;;;;;;;8.98;4.72;;;;;;;17.22;100.00;100670.25;4942485;29;20405;-67
2022/08/24 01:52:23;;;;;;;8.75;4.82;;;;;;;17.15;100.00;100666.34;4951612;28;20105;-67
2022/08/24 01:54:48;;;;;;;6.30;4.50;;;;;;;17.23;100.00;100679.94;4951159;29;20028;-67
2022/08/24 01:57:14;;;;;;;6.75;5.15;;;;;;;17.21;100.00;100671.22;4951537;28;20073;-67
2022/08/24 01:59:40;;;;;;;5.22;4.20;;;;;;;17.21;100.00;100680.97;4951485;28;20402;-68
2022/08/24 02:02:10;;;;;;;6.78;4.50;;;;;;;17.17;100.00;100669.72;4951077;28;20047;-68
2022/08/24 02:04:35;;;;;;;5.03;4.18;;;;;;;17.12;100.00;100674.56;4946417;28;20034;-66
2022/08/24 02:07:01;;;;;;;5.65;4.25;;;;;;;17.14;100.00;100677.94;4943171;28;20394;-67
2022/08/24 02:09:27;;;;;;;5.28;4.35;;;;;;;16.91;100.00;100646.91;4951289;28;20478;-66
2022/08/24 02:11:53;;;;;;;8.13;5.18;;;;;;;17.04;100.00;100676.06;4950647;28;20573;-67
2022/08/24 02:14:19;;;;;;;6.88;5.20;;;;;;;17.00;100.00;100677.25;4928226;29;20110;-67
2022/08/24 02:16:44;;;;;;;7.20;5.93;;;;;;;16.96;100.00;100670.47;4949885;28;20027;-68
2022/08/24 02:19:10;;;;;;;5.45;4.88;;;;;;;16.99;100.00;100676.41;4950954;28;20031;-68
2022/08/24 02:21:35;;;;;;;8.07;5.80;;;;;;;17.01;100.00;100674.47;4948212;28;20023;-68
2022/08/24 02:24:01;;;;;;;6.93;5.38;;;;;;;17.00;100.00;100674.59;4955157;28;20552;-67
2022/08/24 02:26:26;;;;;;;6.05;5.10;;;;;;;16.98;100.00;100679.16;4956957;28;20031;-67
2022/08/24 02:28:51;;;;;;;6.78;4.97;;;;;;;16.92;100.00;100680.47;4940417;28;20393;-67
2022/08/24 02:31:17;;;;;;;7.82;5.60;;;;;;;16.92;100.00;100675.16;4940862;29;20035;-68
2022/08/24 02:33:42;;;;;;;6.38;4.68;;;;;;;16.95;100.00;100680.22;4945405;28;20059;-67
2022/08/24 02:36:09;;;;;;;4.88;4.38;;;;;;;16.91;100.00;100676.09;4939355;29;20031;-68
2022/08/24 02:38:34;;;;;;;8.98;5.75;;;;;;;16.90;100.00;100682.34;4957411;28;20035;-67
2022/08/24 02:41:00;;;;;;;6.75;5.55;;;;;;;16.86;100.00;100675.59;4960845;28;20035;-67
2022/08/24 02:43:25;;;;;;;6.78;5.28;;;;;;;16.83;100.00;100686.44;4950808;29;20069;-68
2022/08/24 02:45:51;;;;;;;7.70;5.45;;;;;;;16.70;100.00;100674.97;4951112;28;20059;-68
2022/08/24 02:48:17;;;;;;;6.15;4.82;;;;;;;16.69;100.00;100667.97;4950914;28;20493;-68
2022/08/24 02:50:45;;;;;;;5.25;4.53;;;;;;;16.72;100.00;100678.38;4953778;28;20031;-68
2022/08/24 02:53:12;;;;;;;7.15;5.65;;;;;;;16.72;100.00;100678.38;4956378;28;20414;-67
2022/08/24 02:55:40;;;;;;;6.70;5.72;;;;;;;16.75;100.00;100678.16;4937257;28;20042;-68
2022/08/24 02:58:06;;;;;;;7.25;5.50;;;;;;;16.73;100.00;100680.06;4949696;28;20028;-67
2022/08/24 03:00:31;;;;;;;6.45;5.50;;;;;;;16.68;100.00;100680.41;4943257;28;20497;-68
2022/08/24 03:02:57;;;;;;;9.40;5.63;;;;;;;16.60;100.00;100679.22;4939789;28;20031;-67
2022/08/24 03:05:22;;;;;;;7.00;5.28;;;;;;;16.63;100.00;100687.81;4946632;29;20035;-68
2022/08/24 03:07:48;;;;;;;6.88;5.90;;;;;;;16.61;100.00;100687.09;4947886;28;20039;-68
2022/08/24 03:10:14;;;;;;;7.68;6.80;;;;;;;16.62;100.00;100690.59;4940442;28;20489;-67
2022/08/24 03:12:40;;;;;;;6.85;5.95;;;;;;;16.60;100.00;100695.16;4942673;28;20035;-67
2022/08/24 03:15:08;;;;;;;8.65;5.72;;;;;;;16.54;100.00;100684.94;4948132;28;20027;-67
2022/08/24 03:17:34;;;;;;;8.65;6.30;;;;;;;16.58;100.00;100691.78;4951244;28;20051;-67
2022/08/24 03:20:00;;;;;;;8.60;5.88;;;;;;;16.53;100.00;100684.09;4953979;28;20125;-68
2022/08/24 03:22:26;;;;;;;7.60;6.32;;;;;;;16.41;100.00;100682.31;4953941;29;20089;-67
2022/08/24 03:24:51;;;;;;;7.72;6.28;;;;;;;16.38;100.00;100686.97;4953498;28;20432;-68
2022/08/24 03:27:17;;;;;;;10.93;6.15;;;;;;;16.45;100.00;100688.25;4953562;29;20024;-67
2022/08/24 03:29:43;;;;;;;7.70;6.38;;;;;;;16.41;100.00;100679.66;4953816;29;20089;-67
2022/08/24 03:32:08;;;;;;;7.57;6.20;;;;;;;16.42;100.00;100675.19;4944022;28;20430;-67
2022/08/24 03:34:34;;;;;;;7.60;6.60;;;;;;;16.42;100.00;100685.81;4943993;29;20023;-67
2022/08/24 03:36:59;;;;;;;9.18;8.02;;;;;;;16.45;100.00;100685.59;4949231;28;20031;-68
2022/08/24 03:39:24;;;;;;;8.30;7.18;;;;;;;16.36;100.00;100672.00;4953446;28;20019;-68
2022/08/24 03:41:50;;;;;;;9.40;8.20;;;;;;;16.47;100.00;100687.19;4953399;28;20096;-67
2022/08/24 03:44:15;;;;;;;8.05;7.00;;;;;;;16.45;100.00;100680.28;4952932;29;20100;-67
2022/08/24 03:46:40;;;;;;;8.65;7.45;;;;;;;16.46;100.00;100679.34;4953440;28;20026;-67
2022/08/24 03:49:08;;;;;;;9.38;7.18;;;;;;;16.41;100.00;100678.78;4953910;28;20039;-67
2022/08/24 03:51:35;;;;;;;8.88;7.25;;;;;;;16.40;100.00;100674.44;4950769;28;20028;-67
2022/08/24 03:54:03;;;;;;;8.55;6.40;;;;;;;16.36;100.00;100674.66;4953184;28;20424;-67
2022/08/24 03:56:28;;;;;;;9.82;7.63;;;;;;;16.29;100.00;100665.44;4952644;28;20081;-67
2022/08/24 03:58:54;;;;;;;8.35;7.18;;;;;;;16.32;100.00;100669.69;4951321;28;20454;-67
2022/08/24 04:01:20;;;;;;;10.13;6.55;;;;;;;16.31;100.00;100678.59;4935305;28;20050;-67
2022/08/24 04:03:46;;;;;;;9.77;7.85;;;;;;;16.18;100.00;100668.00;4950669;28;20027;-67
2022/08/24 04:06:13;;;;;;;7.68;6.63;;;;;;;16.14;100.00;100666.50;4951187;29;20031;-67
2022/08/24 04:08:39;;;;;;;9.10;6.50;;;;;;;16.17;100.00;100671.59;4949576;28;20019;-67
2022/08/24 04:11:09;;;;;;;7.88;6.40;;;;;;;16.19;100.00;100669.66;4895371;28;20283;-67
2022/08/24 04:13:35;;;;;;;9.77;6.88;;;;;;;16.14;100.00;100665.66;4883131;29;20093;-67
2022/08/24 04:16:05;;;;;;;9.25;7.40;;;;;;;16.11;100.00;100660.56;4935283;28;20043;-67
2022/08/24 04:18:31;;;;;;;10.07;7.47;;;;;;;16.11;100.00;100673.81;4953209;28;20038;-67
2022/08/24 04:20:56;;;;;;;9.13;7.30;;;;;;;15.94;100.00;100668.81;4945060;28;20061;-66
2022/08/24 04:23:22;;;;;;;13.10;7.97;;;;;;;15.94;100.00;100674.97;4949060;28;20102;-67
2022/08/24 04:25:47;;;;;;;8.77;6.88;;;;;;;15.84;100.00;100663.28;4952961;28;20032;-67
2022/08/24 04:28:17;;;;;;;10.00;7.80;;;;;;;15.99;100.00;100679.94;4967488;28;20386;-67
2022/08/24 04:30:44;;;;;;;8.63;6.88;;;;;;;15.58;100.00;100614.69;4939469;28;20023;-67
2022/08/24 04:33:11;;;;;;;10.38;7.57;;;;;;;16.01;100.00;100681.56;4943003;29;20098;-67
2022/08/24 04:35:38;;;;;;;11.68;7.75;;;;;;;16.00;100.00;100679.00;4948433;28;20046;-67
2022/08/24 04:38:03;;;;;;;10.23;9.13;;;;;;;15.95;100.00;100689.94;4943955;28;20057;-67
2022/08/24 04:40:29;;;;;;;10.23;8.60;;;;;;;15.90;100.00;100697.31;4951867;28;20497;-67
2022/08/24 04:42:54;;;;;;;11.27;7.07;;;;;;;15.90;100.00;100694.69;4950970;28;20039;-67
2022/08/24 04:45:20;;;;;;;9.73;7.70;;;;;;;15.94;100.00;100690.03;4952439;28;20050;-67
2022/08/24 04:47:45;;;;;;;12.90;7.63;;;;;;;15.90;100.00;100683.22;4952515;28;20599;-67
2022/08/24 04:50:10;;;;;;;10.43;7.47;;;;;;;15.99;100.00;100693.19;4952577;28;20035;-67
2022/08/24 04:52:36;;;;;;;8.18;6.85;;;;;;;15.99;100.00;100688.75;4938905;28;20103;-67
2022/08/24 04:55:01;;;;;;;8.77;7.28;;;;;;;15.88;100.00;100680.69;4945595;28;20028;-67
2022/08/24 04:57:27;;;;;;;10.05;8.55;;;;;;;15.96;100.00;100704.84;4946003;28;20023;-67
2022/08/24 04:59:56;;;;;;;11.68;7.82;;;;;;;15.93;100.00;100699.78;4940102;28;20042;-67
2022/08/24 05:02:21;;;;;;;9.40;8.18;;;;;;;15.65;100.00;100660.16;4935352;29;20035;-67
2022/08/24 05:04:47;;;;;;;11.60;7.72;;;;;;;15.95;100.00;100711.13;4952100;28;20430;-67
2022/08/24 05:07:12;;;;;;;10.68;7.65;;;;;;;15.99;100.00;100720.56;4940238;28;20150;-67
2022/08/24 05:09:38;;;;;;;9.63;7.03;;;;;;;15.98;100.00;100721.53;4935394;28;20390;-67
2022/08/24 05:12:03;;;;;;;9.27;6.95;;;;;;;16.03;100.00;100714.09;4940589;28;20035;-67
2022/08/24 05:14:29;;;;;;;8.10;7.25;;;;;;;15.96;100.00;100696.91;4952433;28;20370;-67
2022/08/24 05:16:55;;;;;;;8.88;6.80;;;;;;;16.09;100.00;100716.31;4944509;28;20494;-67
2022/08/24 05:19:21;;;;;;;9.20;7.55;;;;;;;16.12;100.00;100716.13;4935087;28;20466;-67
2022/08/24 05:21:47;;;;;;;8.48;7.03;;;;;;;16.18;100.00;100721.03;4951398;29;20031;-67
2022/08/24 05:24:13;;;;;;;8.43;7.53;;;;;;;16.15;100.00;100715.94;4947798;28;20111;-67
2022/08/24 05:26:39;;;;;;;7.88;7.07;;;;;;;16.24;100.00;100725.91;4951554;28;20107;-67
2022/08/24 05:29:04;;;;;;;9.00;7.38;;;;;;;16.27;100.00;100727.50;5014769;28;20027;-67
2022/08/24 05:31:31;;;;;;;11.32;8.65;;;;;;;15.79;100.00;100646.84;4951134;28;20030;-67
2022/08/24 05:33:58;;;;;;;8.68;7.47;;;;;;;16.28;100.00;100719.44;4942311;28;20119;-68
2022/08/24 05:36:26;;;;;;;10.68;9.05;;;;;;;16.40;100.00;100733.66;4949848;28;20031;-67
2022/08/24 05:38:54;;;;;;;10.52;8.40;;;;;;;16.48;100.00;100733.13;4951086;28;20339;-67
2022/08/24 05:41:19;;;;;;;10.88;9.77;;;;;;;16.55;100.00;100734.41;4951037;28;20118;-67
2022/08/24 05:43:45;;;;;;;10.85;9.75;;;;;;;16.61;100.00;100736.66;4950645;28;20134;-67
2022/08/24 05:46:11;;;;;;;10.75;9.73;;;;;;;16.68;100.00;100727.31;4940987;28;20390;-68
2022/08/24 05:48:37;;;;;;;12.15;10.95;;;;;;;16.74;100.00;100725.06;4949836;28;20481;-68
2022/08/24 05:51:03;;;;;;;13.38;11.10;;;;;;;16.83;100.00;100734.22;4957448;28;20119;-68
2022/08/24 05:53:29;;;;;;;12.93;11.60;;;;;;;16.89;100.00;100727.59;4943227;28;20044;-67
2022/08/24 05:55:54;;;;;;;13.18;11.88;;;;;;;16.91;100.00;100721.22;4950129;28;20027;-67
2022/08/24 05:58:19;;;;;;;13.82;11.43;;;;;;;17.02;100.00;100729.28;4944005;29;20480;-67
2022/08/24 06:00:45;;;;;;;14.90;10.85;;;;;;;17.08;100.00;100728.84;4950527;28;20023;-67
2022/08/24 06:03:13;;;;;;;12.18;10.57;;;;;;;17.20;100.00;100735.09;4950895;28;20131;-67
2022/08/24 06:05:42;;;;;;;13.13;11.38;;;;;;;17.28;100.00;100733.56;4937180;28;20405;-68
2022/08/24 06:08:08;;;;;;;21.25;17.80;;;;;;;17.29;100.00;100731.75;4950720;28;20035;-67
2022/08/24 06:10:42;;;;;;;19.10;17.20;;;;;;;17.45;100.00;100745.63;4934903;28;20144;-68
2022/08/24 06:13:09;;;;;;;19.70;17.85;;;;;;;17.29;100.00;100702.53;4950746;28;20059;-68
2022/08/24 06:15:35;;;;;;;22.70;20.35;;;;;;;17.63;100.00;100735.47;4950766;28;20489;-68
2022/08/24 06:18:01;;;;;;;29.75;24.88;;;;;;;17.71;100.00;100738.44;4948338;28;20077;-68
2022/08/24 06:20:27;;;;;;;38.90;34.85;;;;;;;17.86;100.00;100742.59;4950289;28;20485;-67
2022/08/24 06:22:52;;;;;;;38.72;34.70;;;;;;;17.91;100.00;100729.81;4945607;28;20034;-68
2022/08/24 06:28:02;;;;;;;50.90;45.88;;;;;;;18.14;100.00;100720.94;4951885;28;20093;-68
2022/08/24 06:30:27;;;;;;;53.88;48.13;;;;;;;18.24;100.00;100721.06;4954628;28;20043;-68
2022/08/24 06:32:52;;;;;;;52.80;47.45;;;;;;;18.46;100.00;100730.88;4952520;28;20042;-68
2022/08/24 06:35:18;;;;;;;50.03;45.13;;;;;;;18.54;100.00;100726.72;4954573;28;20058;-67
2022/08/24 06:37:43;;;;;;;49.20;44.38;;;;;;;18.66;100.00;100724.88;4953366;29;20084;-67
2022/08/24 06:40:09;;;;;;;50.10;45.03;;;;;;;18.81;100.00;100731.69;4953749;28;20024;-68
2022/08/24 06:42:35;;;;;;;47.85;42.30;;;;;;;18.73;100.00;100699.47;4945252;28;20584;-68
2022/08/24 06:45:00;;;;;;;51.20;41.70;;;;;;;18.99;100.00;100724.91;4940125;28;20070;-67
2022/08/24 06:47:25;;;;;;;43.35;38.97;;;;;;;19.12;100.00;100725.63;4939719;28;20098;-68
2022/08/24 06:49:51;;;;;;;45.75;41.25;;;;;;;19.27;100.00;100737.69;4938286;28;20036;-68
2022/08/24 06:52:16;;;;;;;43.63;39.03;;;;;;;19.35;100.00;100740.59;4953545;28;20038;-68
2022/08/24 06:54:42;;;;;;;42.70;38.00;;;;;;;19.46;100.00;100736.25;4952988;28;20027;-68
2022/08/24 06:57:08;;;;;;;37.80;33.53;;;;;;;19.57;100.00;100734.38;4956669;28;20217;-67
2022/08/24 06:59:33;;;;;;;37.33;33.40;;;;;;;19.68;100.00;100749.50;4968422;28;20039;-67
2022/08/24 07:01:59;;;;;;;37.03;32.80;;;;;;;19.80;100.00;100743.16;4950847;28;20035;-68
2022/08/24 07:04:25;;;;;;;37.35;33.22;;;;;;;19.89;100.00;100740.56;4943517;28;20529;-68
2022/08/24 07:06:51;;;;;;;32.30;28.27;;;;;;;19.97;100.00;100742.59;4945372;28;20051;-68
2022/08/24 07:09:17;;;;;;;31.23;28.05;;;;;;;20.13;100.00;100745.66;4953291;28;20109;-67
2022/08/24 07:11:42;;;;;;;30.48;26.85;;;;;;;20.28;100.00;100748.88;4933951;28;20031;-67
2022/08/24 07:14:08;;;;;;;28.90;26.02;;;;;;;20.29;100.00;100730.06;4948334;28;20038;-67
2022/08/24 07:16:34;;;;;;;28.42;25.63;;;;;;;20.51;100.00;100749.59;4953722;28;20027;-68
2022/08/24 07:19:01;;;;;;;28.42;25.42;;;;;;;20.64;100.00;100742.22;4953393;28;20031;-67
2022/08/24 07:21:27;;;;;;;28.63;23.08;;;;;;;20.61;100.00;100730.00;4947250;28;20097;-67
2022/08/24 07:23:57;;;;;;;26.85;22.38;;;;;;;20.83;100.00;100750.31;4941335;29;20067;-68
2022/08/24 07:26:25;;;;;;;26.58;22.85;;;;;;;20.91;100.00;100750.50;4901765;28;20032;-67
2022/08/24 07:29:04;;;;;;;24.20;21.17;;;;;;;21.00;100.00;100752.38;4952094;28;20027;-67
2022/08/24 07:31:33;;;;;;;23.90;21.48;;;;;;;20.85;100.00;100705.63;4952988;29;20177;-67
2022/08/24 07:33:59;;;;;;;25.45;21.73;;;;;;;21.18;100.00;100745.44;4967684;28;20039;-67
2022/08/24 07:36:24;;;;;;;20.45;18.35;;;;;;;21.30;100.00;100757.69;4944206;28;20081;-67
2022/08/24 07:38:53;;;;;;;19.63;17.27;;;;;;;21.35;100.00;100751.97;4937221;28;20035;-67
2022/08/24 07:41:21;;;;;;;15.90;14.18;;;;;;;21.51;100.00;100754.09;4966968;28;20030;-67
2022/08/24 07:43:47;;;;;;;21.98;14.65;;;;;;;21.63;100.00;100763.69;4948847;28;20529;-67
2022/08/24 07:46:13;;;;;;;16.17;13.23;;;;;;;21.75;100.00;100768.78;4950332;28;20031;-67
2022/08/24 07:48:38;;;;;;;19.60;13.48;;;;;;;21.88;100.00;100765.81;4947855;28;20062;-67
2022/08/24 07:51:09;;;;;;;34.38;12.07;;;;;;;21.98;100.00;100766.69;4966762;28;20053;-67
2022/08/24 07:53:34;;;;;;;12.95;10.82;;;;;;;22.08;100.00;100767.53;4925297;28;20032;-67
2022/08/24 07:56:00;;;;;;;16.33;8.60;;;;;;;22.14;100.00;100768.78;4950670;28;20035;-67
2022/08/24 07:58:25;;;;;;;14.70;9.32;;;;;;;22.00;100.00;100737.97;4952088;28;20436;-67
2022/08/24 08:00:50;;;;;;;9.35;8.15;;;;;;;22.30;100.00;100783.31;4921705;28;20061;-67
2022/08/24 08:03:16;;;;;;;16.40;10.10;;;;;;;22.39;100.00;100779.78;4938407;28;20031;-67
2022/08/24 08:05:42;;;;;;;14.50;9.73;;;;;;;22.46;100.00;100782.72;4946993;28;20023;-67
2022/08/24 08:08:07;;;;;;;11.05;7.13;;;;;;;22.21;100.00;100727.94;4944071;28;20031;-67
2022/08/24 08:10:34;;;;;;;11.32;8.30;;;;;;;22.57;100.00;100773.69;4935401;28;20038;-67
2022/08/24 08:13:04;;;;;;;13.45;9.40;;;;;;;22.47;100.00;100756.78;4943816;28;20023;-67
2022/08/24 08:15:30;;;;;;;13.60;7.20;;;;;;;22.70;100.00;100787.66;4952389;29;20061;-67
2022/08/24 08:17:56;;;;;;;11.43;8.48;;;;;;;22.71;100.00;100781.31;4939220;28;20447;-67
2022/08/24 08:20:22;;;;;;;11.45;7.30;;;;;;;22.80;100.00;100791.16;4941081;28;20032;-67
2022/08/24 08:25:31;;;;;;;11.65;7.22;;;;;;;22.94;100.00;100789.84;4944666;28;20496;-67
2022/08/24 08:27:56;;;;;;;15.63;7.40;;;;;;;23.04;100.00;100794.16;4941064;28;20118;-67
2022/08/24 08:30:22;;;;;;;9.60;8.50;;;;;;;23.19;100.00;100798.03;4951831;28;20536;-67
2022/08/24 08:32:48;;;;;;;8.43;5.82;;;;;;;23.35;100.00;100792.06;4952716;28;20037;-67
2022/08/24 08:35:13;;;;;;;8.23;6.03;;;;;;;23.46;100.00;100799.06;4948325;28;20026;-67
2022/08/24 08:37:38;;;;;;;9.20;4.82;;;;;;;23.51;100.00;100791.44;4945603;28;20447;-67
2022/08/24 08:40:06;;;;;;;9.40;4.90;;;;;;;23.59;100.00;100794.22;4945587;29;20058;-67
2022/08/24 08:43:00;;;;;;;11.35;4.60;;;;;;;23.73;100.00;100799.03;4951818;29;20023;-68
2022/08/24 08:45:50;;;;;;;8.20;3.88;;;;;;;23.83;100.00;100797.13;4951539;28;20070;-67
2022/08/24 08:48:53;;;;;;;6.35;3.10;;;;;;;23.99;100.00;100805.38;4942105;29;20091;-68
2022/08/24 08:51:27;;;;;;;6.47;2.60;;;;;;;24.08;100.00;100798.22;4946365;28;20049;-67
2022/08/24 08:54:01;;;;;;;;;;;;;;;24.15;100.00;100797.50;4952364;28;20478;-68
2022/08/24 08:56:39;;;;;;;8.13;3.40;;;;;;;24.24;100.00;100791.19;4951553;28;19914;-67
2022/08/24 08:59:23;;;;;;;4.63;2.40;;;;;;;24.35;100.00;100793.63;4939479;28;20028;-68
2022/08/24 09:01:58;;;;;;;9.80;2.50;;;;;;;24.43;100.00;100790.19;4941802;28;20123;-67
2022/08/24 09:04:55;;;;;;;6.82;2.47;;;;;;;24.54;100.00;100791.75;4943484;28;20516;-67
2022/08/24 09:07:54;;;;;;;4.60;2.45;;;;;;;24.58;100.00;100790.44;5011944;28;20023;-67
2022/08/24 09:10:42;;;;;;;11.13;2.38;;;;;;;24.73;100.00;100797.78;4930288;28;20126;-68
2022/08/24 09:13:30;;;;;;;8.15;1.90;;;;;;;24.80;100.00;100793.47;5003004;28;20453;-68
2022/08/24 09:16:27;;;;;;;3.58;1.65;;;;;;;24.81;100.00;100794.28;4937877;28;20042;-68
2022/08/24 09:19:16;;;;;;;4.57;2.70;;;;;;;24.79;100.00;100789.06;4934537;28;20378;-67
2022/08/24 09:21:45;;;;;;;7.22;2.55;;;;;;;24.77;100.00;100798.31;4944819;28;20035;-68
2022/08/24 09:24:19;;;;;;;8.75;3.25;;;;;;;24.80;100.00;100798.00;4962711;28;20046;-68
2022/08/24 09:27:07;;;;;;;8.45;3.67;;;;;;;24.90;100.00;100791.53;4941018;28;20043;-67
2022/08/24 09:30:03;;;;;;;11.75;4.30;;;;;;;25.05;100.00;100797.16;4941221;28;20261;-67
2022/08/24 09:32:54;;;;;;;5.88;3.97;;;;;;;25.26;100.00;100792.22;5009391;28;20183;-67
2022/08/24 09:35:50;;;;;;;7.47;3.72;;;;;;;25.45;100.00;100788.41;4935617;28;20079;-67
2022/08/24 09:38:49;;;;;;;10.90;5.47;;;;;;;25.61;100.00;100777.75;4936500;28;20044;-67
2022/08/24 09:41:44;;;;;;;9.32;5.13;;;;;;;25.78;100.00;100786.69;4917736;28;20177;-68
2022/08/24 09:44:31;;;;;;;8.40;5.20;;;;;;;25.90;100.00;100788.03;5000564;28;20137;-67
2022/08/24 09:46:57;;;;;;;10.65;5.35;;;;;;;25.95;100.00;100793.78;4942867;28;20027;-66
2022/08/24 09:49:59;;;;;;;11.65;5.78;;;;;;;25.98;100.00;100784.53;4929077;28;20081;-67
2022/08/24 09:52:30;;;;;;;8.10;4.07;;;;;;;26.03;100.00;100788.41;4941860;29;20040;-67
2022/08/24 09:54:58;;;;;;;4.18;2.45;;;;;;;26.14;100.00;100788.06;4970009;28;20483;-67
2022/08/24 09:57:30;;;;;;;6.80;2.70;;;;;;;26.27;100.00;100785.75;4951108;28;20031;-67
2022/08/24 10:00:13;;;;;;;3.15;1.67;;;;;;;26.39;100.00;100789.81;4958234;28;20110;-67
2022/08/24 10:03:07;;;;;;;8.30;2.45;;;;;;;26.55;100.00;100793.50;4939983;28;20031;-67
2022/08/24 10:06:09;;;;;;;6.28;2.95;;;;;;;26.74;100.00;100787.72;4977991;28;20067;-67
2022/08/24 10:08:58;;;;;;;4.68;2.30;;;;;;;26.87;100.00;100788.91;4960617;28;20034;-67
2022/08/24 10:11:49;;;;;;;5.45;2.15;;;;;;;27.01;100.00;100783.81;4953125;28;20142;-67
2022/08/24 10:14:17;;;;;;;8.15;2.13;;;;;;;27.12;100.00;100780.75;4985835;28;20473;-67
2022/08/24 10:17:09;;;;;;;3.85;1.80;;;;;;;27.21;100.00;100772.44;4954700;28;20034;-67
2022/08/24 10:19:47;;;;;;;6.53;2.35;;;;;;;27.17;100.00;100771.13;4956480;28;20448;-67
2022/08/24 10:22:15;;;;;;;7.55;2.30;;;;;;;27.09;100.00;100759.50;4945465;28;20081;-68
2022/08/24 10:24:52;;;;;;;11.95;2.45;;;;;;;27.00;100.00;100772.19;4946053;28;20028;-67
2022/08/24 10:27:25;;;;;;;6.40;2.10;;;;;;;26.92;100.00;100754.16;4942703;28;20031;-67
2022/08/24 10:30:16;;;;;;;4.50;2.30;;;;;;;27.05;100.00;100755.47;4957647;28;20038;-68
2022/08/24 10:33:22;;;;;;;6.00;2.35;;;;;;;27.20;100.00;100753.72;4960189;28;20054;-68
2022/08/24 10:36:12;;;;;;;5.45;2.90;;;;;;;27.40;100.00;100758.53;4953952;28;20050;-68
2022/08/24 10:41:52;;;;;;;6.80;2.92;;;;;;;27.83;100.00;100753.56;4996182;28;20074;-67
2022/08/24 10:44:18;;;;;;;8.13;3.25;;;;;;;27.92;94.86;100744.38;4942107;28;20023;-66
2022/08/24 10:46:51;;;;;;;5.97;3.22;;;;;;;27.99;94.53;100741.78;4936416;28;20047;-67
2022/08/24 10:49:35;;;;;;;4.50;2.85;;;;;;;28.14;96.08;100743.56;4925792;28;20039;-66
2022/08/24 10:52:19;;;;;;;12.18;3.83;;;;;;;28.18;92.74;100736.78;4938930;28;20080;-67
2022/08/24 10:54:45;;;;;;;9.77;3.63;;;;;;;28.13;97.38;100722.94;4956414;28;20047;-67
2022/08/24 10:57:21;;;;;;;9.30;2.97;;;;;;;28.38;96.48;100727.13;4955969;28;20062;-67
2022/08/24 11:00:06;;;;;;;5.30;2.92;;;;;;;28.51;89.82;100737.28;4953761;28;20023;-67
2022/08/24 11:02:37;;;;;;;6.53;3.00;;;;;;;28.47;87.83;100719.75;4948025;28;20027;-67
2022/08/24 11:05:09;;;;;;;8.52;3.28;;;;;;;28.59;87.88;100733.66;5007185;28;20039;-68
2022/08/24 11:07:54;;;;;;;7.85;3.13;;;;;;;28.58;88.20;100715.75;4942247;29;20031;-67
2022/08/24 11:10:23;;;;;;;;;;;;;;;28.70;84.35;100720.53;5019787;28;20474;-67
2022/08/24 11:12:49;;;;;;;11.93;3.25;;;;;;;28.77;87.04;100720.63;4943956;28;19966;-67
2022/08/24 11:15:17;;;;;;;6.53;3.28;;;;;;;28.88;84.83;100720.19;4945063;28;20050;-67
2022/08/24 11:18:03;;;;;;;6.70;3.60;;;;;;;28.98;83.42;100714.47;4950380;28;20028;-68
2022/08/24 11:20:54;;;;;;;8.38;3.38;;;;;;;29.17;85.36;100720.13;4940209;28;20027;-67
2022/08/24 11:23:22;;;;;;;5.90;3.13;;;;;;;29.29;82.58;100715.09;4936535;28;20035;-67
2022/08/24 11:26:10;;;;;;;7.90;3.17;;;;;;;29.46;80.63;100721.97;4945319;29;20101;-67
2022/08/24 11:28:39;;;;;;;5.88;3.17;;;;;;;29.62;78.21;100720.88;4953053;28;20035;-67
2022/08/24 11:31:11;;;;;;;10.38;3.30;;;;;;;29.64;75.47;100689.03;4938813;28;20544;-68
2022/08/24 11:33:51;;;;;;;6.32;3.22;;;;;;;30.06;80.40;100718.84;4952397;29;20377;-67
2022/08/24 11:36:22;;;;;;;6.60;2.95;;;;;;;30.26;78.14;100709.00;4950758;28;20537;-67
2022/08/24 11:38:48;;;;;;;7.78;2.53;;;;;;;30.18;78.45;100649.47;4953809;28;20027;-67